sensor_id;sensor_type;location;lat;lon;timestamp;P1;durP1;ratioP1;P2;durP2;ratioP2
53313;SDS011;39202;51.468;7.146;2022-11-20T00:03:03;3.15;;;2.95;;
53313;SDS011;39202;51.468;7.146;2022-11-20T00:08:05;3.53;;;3.33;;
53313;SDS011;39202;51.468;7.146;2022-11-20T00:13:08;3.00;;;2.80;;
53313;SDS011;39202;51.468;7.146;2022-11-20T00:18:10;2.97;;;2.78;;
53313;SDS011;39202;51.468;7.146;2022-11-20T00:23:11;3.13;;;2.92;;
53313;SDS011;39202;51.468;7.146;2022-11-20T00:28:14;3.30;;;3.00;;
53313;SDS011;39202;51.468;7.146;2022-11-20T00:33:16;3.08;;;2.85;;
53313;SDS011;39202;51.468;7.146;2022-11-20T00:38:18;3.40;;;3.10;;
53313;SDS011;39202;51.468;7.146;2022-11-20T00:43:21;3.20;;;3.00;;
53313;SDS011;39202;51.468;7.146;2022-11-20T00:48:22;3.40;;;3.20;;
53313;SDS011;39202;51.468;7.146;2022-11-20T00:53:24;3.50;;;3.20;;
53313;SDS011;39202;51.468;7.146;2022-11-20T00:58:30;3.58;;;3.30;;
53313;SDS011;39202;51.468;7.146;2022-11-20T01:03:33;3.35;;;3.15;;
53313;SDS011;39202;51.468;7.146;2022-11-20T01:08:35;3.75;;;3.45;;
53313;SDS011;39202;51.468;7.146;2022-11-20T01:13:39;3.92;;;3.63;;
53313;SDS011;39202;51.468;7.146;2022-11-20T01:18:42;3.72;;;3.45;;
53313;SDS011;39202;51.468;7.146;2022-11-20T01:23:45;3.72;;;3.42;;
53313;SDS011;39202;51.468;7.146;2022-11-20T01:28:49;3.70;;;3.40;;
53313;SDS011;39202;51.468;7.146;2022-11-20T01:33:52;3.60;;;3.30;;
53313;SDS011;39202;51.468;7.146;2022-11-20T01:38:55;3.88;;;3.58;;
53313;SDS011;39202;51.468;7.146;2022-11-20T01:43:59;3.78;;;3.50;;
53313;SDS011;39202;51.468;7.146;2022-11-20T01:49:02;3.83;;;3.53;;
53313;SDS011;39202;51.468;7.146;2022-11-20T01:54:11;3.63;;;3.33;;
53313;SDS011;39202;51.468;7.146;2022-11-20T01:59:18;4.38;;;3.97;;
53313;SDS011;39202;51.468;7.146;2022-11-20T02:04:22;4.13;;;3.83;;
53313;SDS011;39202;51.468;7.146;2022-11-20T02:09:25;4.40;;;4.00;;
53313;SDS011;39202;51.468;7.146;2022-11-20T02:14:28;4.07;;;3.78;;
53313;SDS011;39202;51.468;7.146;2022-11-20T02:19:31;4.60;;;4.20;;
53313;SDS011;39202;51.468;7.146;2022-11-20T02:24:34;4.55;;;4.15;;
53313;SDS011;39202;51.468;7.146;2022-11-20T02:29:36;4.63;;;4.25;;
53313;SDS011;39202;51.468;7.146;2022-11-20T02:34:41;4.00;;;3.70;;
53313;SDS011;39202;51.468;7.146;2022-11-20T02:39:45;4.43;;;4.03;;
53313;SDS011;39202;51.468;7.146;2022-11-20T02:44:48;4.78;;;4.38;;
53313;SDS011;39202;51.468;7.146;2022-11-20T02:49:50;4.75;;;4.35;;
53313;SDS011;39202;51.468;7.146;2022-11-20T02:54:53;4.45;;;4.05;;
53313;SDS011;39202;51.468;7.146;2022-11-20T02:59:54;4.32;;;3.92;;
53313;SDS011;39202;51.468;7.146;2022-11-20T03:04:56;4.25;;;3.95;;
53313;SDS011;39202;51.468;7.146;2022-11-20T03:09:59;4.75;;;4.35;;
53313;SDS011;39202;51.468;7.146;2022-11-20T03:15:01;4.82;;;4.43;;
53313;SDS011;39202;51.468;7.146;2022-11-20T03:20:03;4.63;;;4.25;;
53313;SDS011;39202;51.468;7.146;2022-11-20T03:25:07;4.72;;;4.32;;
53313;SDS011;39202;51.468;7.146;2022-11-20T03:30:09;4.82;;;4.43;;
53313;SDS011;39202;51.468;7.146;2022-11-20T03:35:11;4.55;;;4.15;;
53313;SDS011;39202;51.468;7.146;2022-11-20T03:40:14;4.72;;;4.32;;
53313;SDS011;39202;51.468;7.146;2022-11-20T03:45:17;4.97;;;4.55;;
53313;SDS011;39202;51.468;7.146;2022-11-20T03:50:19;4.72;;;4.32;;
53313;SDS011;39202;51.468;7.146;2022-11-20T03:55:22;5.03;;;4.53;;
53313;SDS011;39202;51.468;7.146;2022-11-20T04:00:23;4.35;;;4.05;;
53313;SDS011;39202;51.468;7.146;2022-11-20T04:05:25;4.68;;;4.28;;
53313;SDS011;39202;51.468;7.146;2022-11-20T04:10:28;5.00;;;4.50;;
53313;SDS011;39202;51.468;7.146;2022-11-20T04:15:30;4.40;;;4.00;;
53313;SDS011;39202;51.468;7.146;2022-11-20T04:20:32;4.38;;;4.05;;
53313;SDS011;39202;51.468;7.146;2022-11-20T04:25:36;4.82;;;4.43;;
53313;SDS011;39202;51.468;7.146;2022-11-20T04:30:37;4.70;;;4.30;;
53313;SDS011;39202;51.468;7.146;2022-11-20T04:35:39;4.68;;;4.28;;
53313;SDS011;39202;51.468;7.146;2022-11-20T04:40:42;4.78;;;4.38;;
53313;SDS011;39202;51.468;7.146;2022-11-20T04:45:47;4.15;;;3.85;;
53313;SDS011;39202;51.468;7.146;2022-11-20T04:50:51;4.38;;;4.00;;
53313;SDS011;39202;51.468;7.146;2022-11-20T04:56:00;4.78;;;4.38;;
53313;SDS011;39202;51.468;7.146;2022-11-20T05:01:02;4.47;;;4.13;;
53313;SDS011;39202;51.468;7.146;2022-11-20T05:06:04;4.40;;;4.00;;
53313;SDS011;39202;51.468;7.146;2022-11-20T05:11:09;4.28;;;3.88;;
53313;SDS011;39202;51.468;7.146;2022-11-20T05:16:12;4.25;;;3.85;;
53313;SDS011;39202;51.468;7.146;2022-11-20T05:21:16;4.57;;;4.20;;
53313;SDS011;39202;51.468;7.146;2022-11-20T05:26:20;4.60;;;4.20;;
53313;SDS011;39202;51.468;7.146;2022-11-20T05:31:23;4.40;;;4.00;;
53313;SDS011;39202;51.468;7.146;2022-11-20T05:36:26;4.40;;;4.10;;
53313;SDS011;39202;51.468;7.146;2022-11-20T05:41:29;4.15;;;3.85;;
53313;SDS011;39202;51.468;7.146;2022-11-20T05:46:31;4.68;;;4.30;;
53313;SDS011;39202;51.468;7.146;2022-11-20T05:51:32;4.30;;;4.00;;
53313;SDS011;39202;51.468;7.146;2022-11-20T05:56:35;4.55;;;4.18;;
53313;SDS011;39202;51.468;7.146;2022-11-20T06:01:37;4.35;;;3.97;;
53313;SDS011;39202;51.468;7.146;2022-11-20T06:06:39;4.07;;;3.78;;
53313;SDS011;39202;51.468;7.146;2022-11-20T06:11:42;4.10;;;3.80;;
53313;SDS011;39202;51.468;7.146;2022-11-20T06:16:43;3.92;;;3.63;;
53313;SDS011;39202;51.468;7.146;2022-11-20T06:21:45;4.13;;;3.83;;
53313;SDS011;39202;51.468;7.146;2022-11-20T06:26:50;3.95;;;3.65;;
53313;SDS011;39202;51.468;7.146;2022-11-20T06:31:51;4.20;;;3.90;;
53313;SDS011;39202;51.468;7.146;2022-11-20T06:36:53;3.80;;;3.55;;
53313;SDS011;39202;51.468;7.146;2022-11-20T06:41:56;3.90;;;3.60;;
53313;SDS011;39202;51.468;7.146;2022-11-20T06:46:58;3.88;;;3.58;;
53313;SDS011;39202;51.468;7.146;2022-11-20T06:52:00;3.67;;;3.47;;
53313;SDS011;39202;51.468;7.146;2022-11-20T06:57:03;3.78;;;3.47;;
53313;SDS011;39202;51.468;7.146;2022-11-20T07:02:04;4.07;;;3.75;;
53313;SDS011;39202;51.468;7.146;2022-11-20T07:07:06;3.92;;;3.63;;
53313;SDS011;39202;51.468;7.146;2022-11-20T07:12:10;3.78;;;3.47;;
53313;SDS011;39202;51.468;7.146;2022-11-20T07:17:12;3.88;;;3.58;;
53313;SDS011;39202;51.468;7.146;2022-11-20T07:22:14;3.53;;;3.22;;
53313;SDS011;39202;51.468;7.146;2022-11-20T07:27:17;3.60;;;3.33;;
53313;SDS011;39202;51.468;7.146;2022-11-20T07:32:18;3.15;;;2.95;;
53313;SDS011;39202;51.468;7.146;2022-11-20T07:37:20;3.90;;;3.60;;
53313;SDS011;39202;51.468;7.146;2022-11-20T07:42:23;4.00;;;3.70;;
53313;SDS011;39202;51.468;7.146;2022-11-20T07:47:25;3.25;;;3.05;;
53313;SDS011;39202;51.468;7.146;2022-11-20T07:52:27;3.78;;;3.47;;
53313;SDS011;39202;51.468;7.146;2022-11-20T07:57:31;3.55;;;3.35;;
53313;SDS011;39202;51.468;7.146;2022-11-20T08:02:33;3.65;;;3.40;;
53313;SDS011;39202;51.468;7.146;2022-11-20T08:07:35;3.55;;;3.25;;
53313;SDS011;39202;51.468;7.146;2022-11-20T08:12:44;3.38;;;3.17;;
53313;SDS011;39202;51.468;7.146;2022-11-20T08:18:04;3.55;;;3.25;;
53313;SDS011;39202;51.468;7.146;2022-11-20T08:23:07;3.60;;;3.35;;
53313;SDS011;39202;51.468;7.146;2022-11-20T08:28:10;3.63;;;3.35;;
53313;SDS011;39202;51.468;7.146;2022-11-20T08:33:12;3.72;;;3.42;;
53313;SDS011;39202;51.468;7.146;2022-11-20T08:38:14;3.30;;;3.10;;
53313;SDS011;39202;51.468;7.146;2022-11-20T08:43:17;3.45;;;3.15;;
53313;SDS011;39202;51.468;7.146;2022-11-20T08:48:18;3.42;;;3.15;;
53313;SDS011;39202;51.468;7.146;2022-11-20T08:53:20;3.53;;;3.25;;
53313;SDS011;39202;51.468;7.146;2022-11-20T08:58:23;3.05;;;2.85;;
53313;SDS011;39202;51.468;7.146;2022-11-20T09:03:25;3.78;;;3.33;;
53313;SDS011;39202;51.468;7.146;2022-11-20T09:08:27;3.67;;;3.38;;
53313;SDS011;39202;51.468;7.146;2022-11-20T09:13:32;3.30;;;3.10;;
53313;SDS011;39202;51.468;7.146;2022-11-20T09:18:35;3.78;;;3.45;;
53313;SDS011;39202;51.468;7.146;2022-11-20T09:23:38;3.08;;;2.88;;
53313;SDS011;39202;51.468;7.146;2022-11-20T09:28:42;3.38;;;3.17;;
53313;SDS011;39202;51.468;7.146;2022-11-20T09:33:43;3.60;;;3.30;;
53313;SDS011;39202;51.468;7.146;2022-11-20T09:38:45;3.60;;;3.30;;
53313;SDS011;39202;51.468;7.146;2022-11-20T09:43:50;3.75;;;3.40;;
53313;SDS011;39202;51.468;7.146;2022-11-20T09:49:05;3.60;;;3.30;;
53313;SDS011;39202;51.468;7.146;2022-11-20T09:54:18;3.80;;;3.45;;
53313;SDS011;39202;51.468;7.146;2022-11-20T09:59:27;3.85;;;3.55;;
53313;SDS011;39202;51.468;7.146;2022-11-20T10:04:35;4.60;;;3.45;;
53313;SDS011;39202;51.468;7.146;2022-11-20T10:09:44;4.70;;;4.00;;
53313;SDS011;39202;51.468;7.146;2022-11-20T10:14:58;4.03;;;3.67;;
53313;SDS011;39202;51.468;7.146;2022-11-20T10:20:14;3.70;;;3.35;;
53313;SDS011;39202;51.468;7.146;2022-11-20T10:25:20;4.13;;;3.25;;
53313;SDS011;39202;51.468;7.146;2022-11-20T10:30:27;3.60;;;3.15;;
53313;SDS011;39202;51.468;7.146;2022-11-20T10:35:32;3.42;;;3.08;;
53313;SDS011;39202;51.468;7.146;2022-11-20T10:40:40;3.15;;;2.95;;
53313;SDS011;39202;51.468;7.146;2022-11-20T10:45:47;3.15;;;2.92;;
53313;SDS011;39202;51.468;7.146;2022-11-20T10:50:57;3.47;;;3.10;;
53313;SDS011;39202;51.468;7.146;2022-11-20T10:56:05;3.15;;;2.92;;
53313;SDS011;39202;51.468;7.146;2022-11-20T11:01:15;3.13;;;2.85;;
53313;SDS011;39202;51.468;7.146;2022-11-20T11:06:22;3.15;;;2.95;;
53313;SDS011;39202;51.468;7.146;2022-11-20T11:11:30;3.10;;;2.90;;
53313;SDS011;39202;51.468;7.146;2022-11-20T11:16:35;2.97;;;2.78;;
53313;SDS011;39202;51.468;7.146;2022-11-20T11:21:36;3.28;;;3.00;;
53313;SDS011;39202;51.468;7.146;2022-11-20T11:26:50;3.35;;;3.05;;
53313;SDS011;39202;51.468;7.146;2022-11-20T11:32:04;3.20;;;2.90;;
53313;SDS011;39202;51.468;7.146;2022-11-20T11:37:10;2.78;;;2.58;;
53313;SDS011;39202;51.468;7.146;2022-11-20T11:42:18;2.88;;;2.67;;
53313;SDS011;39202;51.468;7.146;2022-11-20T11:47:23;2.85;;;2.65;;
53313;SDS011;39202;51.468;7.146;2022-11-20T11:52:26;2.55;;;2.35;;
53313;SDS011;39202;51.468;7.146;2022-11-20T11:57:34;2.67;;;2.50;;
53313;SDS011;39202;51.468;7.146;2022-11-20T12:02:47;2.97;;;2.78;;
53313;SDS011;39202;51.468;7.146;2022-11-20T12:07:57;2.90;;;2.70;;
53313;SDS011;39202;51.468;7.146;2022-11-20T12:13:02;3.22;;;2.83;;
53313;SDS011;39202;51.468;7.146;2022-11-20T12:18:10;2.70;;;2.50;;
53313;SDS011;39202;51.468;7.146;2022-11-20T12:23:17;2.83;;;2.63;;
53313;SDS011;39202;51.468;7.146;2022-11-20T12:28:30;3.00;;;2.72;;
53313;SDS011;39202;51.468;7.146;2022-11-20T12:33:48;2.78;;;2.58;;
53313;SDS011;39202;51.468;7.146;2022-11-20T12:39:05;2.72;;;2.53;;
53313;SDS011;39202;51.468;7.146;2022-11-20T12:44:21;2.58;;;2.38;;
53313;SDS011;39202;51.468;7.146;2022-11-20T12:49:56;2.80;;;2.60;;
53313;SDS011;39202;51.468;7.146;2022-11-20T12:55:14;2.63;;;2.50;;
53313;SDS011;39202;51.468;7.146;2022-11-20T13:00:29;2.80;;;2.60;;
53313;SDS011;39202;51.468;7.146;2022-11-20T13:05:39;2.78;;;2.58;;
53313;SDS011;39202;51.468;7.146;2022-11-20T13:10:47;2.42;;;2.33;;
53313;SDS011;39202;51.468;7.146;2022-11-20T13:15:54;2.80;;;2.60;;
53313;SDS011;39202;51.468;7.146;2022-11-20T13:21:02;2.53;;;2.38;;
53313;SDS011;39202;51.468;7.146;2022-11-20T13:26:16;2.65;;;2.45;;
53313;SDS011;39202;51.468;7.146;2022-11-20T13:31:24;2.40;;;2.25;;
53313;SDS011;39202;51.468;7.146;2022-11-20T13:36:31;2.50;;;2.30;;
53313;SDS011;39202;51.468;7.146;2022-11-20T13:41:36;2.53;;;2.42;;
53313;SDS011;39202;51.468;7.146;2022-11-20T13:46:41;2.38;;;2.28;;
53313;SDS011;39202;51.468;7.146;2022-11-20T13:51:46;2.50;;;2.25;;
53313;SDS011;39202;51.468;7.146;2022-11-20T13:56:53;2.15;;;2.05;;
53313;SDS011;39202;51.468;7.146;2022-11-20T14:02:05;2.50;;;2.30;;
53313;SDS011;39202;51.468;7.146;2022-11-20T14:07:13;2.88;;;2.67;;
53313;SDS011;39202;51.468;7.146;2022-11-20T14:12:16;2.42;;;2.22;;
53313;SDS011;39202;51.468;7.146;2022-11-20T14:17:21;2.40;;;2.20;;
53313;SDS011;39202;51.468;7.146;2022-11-20T14:22:27;2.42;;;2.22;;
53313;SDS011;39202;51.468;7.146;2022-11-20T14:27:29;2.38;;;2.28;;
53313;SDS011;39202;51.468;7.146;2022-11-20T14:32:34;2.67;;;2.47;;
53313;SDS011;39202;51.468;7.146;2022-11-20T14:37:38;2.22;;;2.13;;
53313;SDS011;39202;51.468;7.146;2022-11-20T14:42:43;2.40;;;2.20;;
53313;SDS011;39202;51.468;7.146;2022-11-20T14:47:45;2.33;;;2.03;;
53313;SDS011;39202;51.468;7.146;2022-11-20T14:52:52;2.05;;;1.95;;
53313;SDS011;39202;51.468;7.146;2022-11-20T14:57:55;2.53;;;2.33;;
53313;SDS011;39202;51.468;7.146;2022-11-20T15:02:58;2.03;;;1.92;;
53313;SDS011;39202;51.468;7.146;2022-11-20T15:08:06;2.20;;;2.10;;
53313;SDS011;39202;51.468;7.146;2022-11-20T15:13:11;2.28;;;2.17;;
53313;SDS011;39202;51.468;7.146;2022-11-20T15:18:15;1.98;;;1.88;;
53313;SDS011;39202;51.468;7.146;2022-11-20T15:23:20;2.10;;;2.00;;
53313;SDS011;39202;51.468;7.146;2022-11-20T15:28:23;2.40;;;2.30;;
53313;SDS011;39202;51.468;7.146;2022-11-20T15:33:31;2.50;;;2.30;;
53313;SDS011;39202;51.468;7.146;2022-11-20T15:38:35;2.08;;;1.98;;
53313;SDS011;39202;51.468;7.146;2022-11-20T15:43:37;2.10;;;2.00;;
53313;SDS011;39202;51.468;7.146;2022-11-20T15:48:40;2.45;;;2.30;;
53313;SDS011;39202;51.468;7.146;2022-11-20T15:53:45;1.88;;;1.77;;
53313;SDS011;39202;51.468;7.146;2022-11-20T15:58:47;2.20;;;2.10;;
53313;SDS011;39202;51.468;7.146;2022-11-20T16:03:49;2.30;;;2.20;;
53313;SDS011;39202;51.468;7.146;2022-11-20T16:08:52;2.13;;;2.03;;
53313;SDS011;39202;51.468;7.146;2022-11-20T16:13:54;2.25;;;2.13;;
53313;SDS011;39202;51.468;7.146;2022-11-20T16:19:13;1.90;;;1.80;;
53313;SDS011;39202;51.468;7.146;2022-11-20T16:24:17;2.10;;;2.00;;
53313;SDS011;39202;51.468;7.146;2022-11-20T16:29:19;2.10;;;2.00;;
53313;SDS011;39202;51.468;7.146;2022-11-20T16:34:21;2.00;;;1.90;;
53313;SDS011;39202;51.468;7.146;2022-11-20T16:39:24;2.30;;;2.10;;
53313;SDS011;39202;51.468;7.146;2022-11-20T16:44:26;2.00;;;1.90;;
53313;SDS011;39202;51.468;7.146;2022-11-20T16:49:28;2.00;;;1.90;;
53313;SDS011;39202;51.468;7.146;2022-11-20T16:54:31;2.10;;;2.00;;
53313;SDS011;39202;51.468;7.146;2022-11-20T16:59:32;1.90;;;1.80;;
53313;SDS011;39202;51.468;7.146;2022-11-20T17:04:34;2.08;;;1.98;;
53313;SDS011;39202;51.468;7.146;2022-11-20T17:09:37;2.10;;;2.00;;
53313;SDS011;39202;51.468;7.146;2022-11-20T17:14:39;2.33;;;2.17;;
53313;SDS011;39202;51.468;7.146;2022-11-20T17:19:40;2.10;;;2.00;;
53313;SDS011;39202;51.468;7.146;2022-11-20T17:24:43;1.90;;;1.80;;
53313;SDS011;39202;51.468;7.146;2022-11-20T17:29:45;1.90;;;1.80;;
53313;SDS011;39202;51.468;7.146;2022-11-20T17:34:47;1.98;;;1.88;;
53313;SDS011;39202;51.468;7.146;2022-11-20T17:39:50;1.75;;;1.65;;
53313;SDS011;39202;51.468;7.146;2022-11-20T17:44:52;1.90;;;1.80;;
53313;SDS011;39202;51.468;7.146;2022-11-20T17:49:53;1.88;;;1.77;;
53313;SDS011;39202;51.468;7.146;2022-11-20T17:54:56;1.67;;;1.58;;
53313;SDS011;39202;51.468;7.146;2022-11-20T17:59:58;1.90;;;1.80;;
53313;SDS011;39202;51.468;7.146;2022-11-20T18:05:00;1.70;;;1.60;;
53313;SDS011;39202;51.468;7.146;2022-11-20T18:10:03;1.88;;;1.77;;
53313;SDS011;39202;51.468;7.146;2022-11-20T18:15:06;1.73;;;1.63;;
53313;SDS011;39202;51.468;7.146;2022-11-20T18:20:08;2.25;;;2.10;;
53313;SDS011;39202;51.468;7.146;2022-11-20T18:25:12;2.00;;;1.90;;
53313;SDS011;39202;51.468;7.146;2022-11-20T18:30:14;1.90;;;1.80;;
53313;SDS011;39202;51.468;7.146;2022-11-20T18:35:15;1.70;;;1.60;;
53313;SDS011;39202;51.468;7.146;2022-11-20T18:40:18;1.85;;;1.75;;
53313;SDS011;39202;51.468;7.146;2022-11-20T18:45:20;1.90;;;1.80;;
53313;SDS011;39202;51.468;7.146;2022-11-20T18:50:22;1.85;;;1.75;;
53313;SDS011;39202;51.468;7.146;2022-11-20T18:55:25;1.77;;;1.67;;
53313;SDS011;39202;51.468;7.146;2022-11-20T19:00:26;1.90;;;1.80;;
53313;SDS011;39202;51.468;7.146;2022-11-20T19:05:28;1.83;;;1.73;;
53313;SDS011;39202;51.468;7.146;2022-11-20T19:10:31;1.75;;;1.65;;
53313;SDS011;39202;51.468;7.146;2022-11-20T19:15:33;1.77;;;1.67;;
53313;SDS011;39202;51.468;7.146;2022-11-20T19:20:36;1.90;;;1.80;;
53313;SDS011;39202;51.468;7.146;2022-11-20T19:25:39;1.67;;;1.58;;
53313;SDS011;39202;51.468;7.146;2022-11-20T19:30:41;1.70;;;1.60;;
53313;SDS011;39202;51.468;7.146;2022-11-20T19:35:43;1.67;;;1.58;;
53313;SDS011;39202;51.468;7.146;2022-11-20T19:40:46;1.50;;;1.48;;
53313;SDS011;39202;51.468;7.146;2022-11-20T19:45:47;2.00;;;1.90;;
53313;SDS011;39202;51.468;7.146;2022-11-20T19:50:49;1.50;;;1.50;;
53313;SDS011;39202;51.468;7.146;2022-11-20T19:55:56;1.67;;;1.60;;
53313;SDS011;39202;51.468;7.146;2022-11-20T20:01:04;1.60;;;1.50;;
53313;SDS011;39202;51.468;7.146;2022-11-20T20:06:07;1.73;;;1.63;;
53313;SDS011;39202;51.468;7.146;2022-11-20T20:11:12;1.55;;;1.45;;
53313;SDS011;39202;51.468;7.146;2022-11-20T20:16:17;1.55;;;1.50;;
53313;SDS011;39202;51.468;7.146;2022-11-20T20:21:20;1.80;;;1.70;;
53313;SDS011;39202;51.468;7.146;2022-11-20T20:26:24;1.65;;;1.55;;
53313;SDS011;39202;51.468;7.146;2022-11-20T20:31:27;1.70;;;1.60;;
53313;SDS011;39202;51.468;7.146;2022-11-20T20:36:30;1.48;;;1.48;;
53313;SDS011;39202;51.468;7.146;2022-11-20T20:41:33;2.00;;;1.90;;
53313;SDS011;39202;51.468;7.146;2022-11-20T20:46:35;1.70;;;1.60;;
53313;SDS011;39202;51.468;7.146;2022-11-20T20:51:37;1.60;;;1.50;;
53313;SDS011;39202;51.468;7.146;2022-11-20T20:56:40;1.77;;;1.67;;
53313;SDS011;39202;51.468;7.146;2022-11-20T21:01:41;1.40;;;1.40;;
53313;SDS011;39202;51.468;7.146;2022-11-20T21:06:43;1.90;;;1.80;;
53313;SDS011;39202;51.468;7.146;2022-11-20T21:11:46;1.45;;;1.45;;
53313;SDS011;39202;51.468;7.146;2022-11-20T21:16:49;1.60;;;1.60;;
53313;SDS011;39202;51.468;7.146;2022-11-20T21:21:51;1.90;;;1.80;;
53313;SDS011;39202;51.468;7.146;2022-11-20T21:27:00;1.70;;;1.60;;
53313;SDS011;39202;51.468;7.146;2022-11-20T21:32:03;1.67;;;1.60;;
53313;SDS011;39202;51.468;7.146;2022-11-20T21:37:04;1.70;;;1.60;;
53313;SDS011;39202;51.468;7.146;2022-11-20T21:42:07;1.55;;;1.45;;
53313;SDS011;39202;51.468;7.146;2022-11-20T21:47:09;1.80;;;1.70;;
53313;SDS011;39202;51.468;7.146;2022-11-20T21:52:12;1.85;;;1.75;;
53313;SDS011;39202;51.468;7.146;2022-11-20T21:57:15;1.50;;;1.50;;
53313;SDS011;39202;51.468;7.146;2022-11-20T22:02:17;1.63;;;1.52;;
53313;SDS011;39202;51.468;7.146;2022-11-20T22:07:18;1.73;;;1.63;;
53313;SDS011;39202;51.468;7.146;2022-11-20T22:12:21;1.45;;;1.45;;
53313;SDS011;39202;51.468;7.146;2022-11-20T22:17:23;1.35;;;1.30;;
53313;SDS011;39202;51.468;7.146;2022-11-20T22:22:39;1.48;;;1.38;;
53313;SDS011;39202;51.468;7.146;2022-11-20T22:27:42;1.42;;;1.40;;
53313;SDS011;39202;51.468;7.146;2022-11-20T22:32:46;1.40;;;1.40;;
53313;SDS011;39202;51.468;7.146;2022-11-20T22:37:48;1.70;;;1.60;;
53313;SDS011;39202;51.468;7.146;2022-11-20T22:42:51;1.55;;;1.45;;
53313;SDS011;39202;51.468;7.146;2022-11-20T22:47:52;1.40;;;1.40;;
53313;SDS011;39202;51.468;7.146;2022-11-20T22:52:54;1.58;;;1.50;;
53313;SDS011;39202;51.468;7.146;2022-11-20T22:57:57;1.35;;;1.35;;
53313;SDS011;39202;51.468;7.146;2022-11-20T23:02:59;1.65;;;1.55;;
53313;SDS011;39202;51.468;7.146;2022-11-20T23:08:01;1.40;;;1.40;;
53313;SDS011;39202;51.468;7.146;2022-11-20T23:13:04;1.50;;;1.50;;
53313;SDS011;39202;51.468;7.146;2022-11-20T23:18:05;1.55;;;1.50;;
53313;SDS011;39202;51.468;7.146;2022-11-20T23:23:07;1.40;;;1.40;;
53313;SDS011;39202;51.468;7.146;2022-11-20T23:28:10;1.70;;;1.60;;
53313;SDS011;39202;51.468;7.146;2022-11-20T23:33:12;1.58;;;1.55;;
53313;SDS011;39202;51.468;7.146;2022-11-20T23:38:14;1.40;;;1.30;;
53313;SDS011;39202;51.468;7.146;2022-11-20T23:43:17;1.40;;;1.40;;
53313;SDS011;39202;51.468;7.146;2022-11-20T23:48:21;1.30;;;1.30;;
53313;SDS011;39202;51.468;7.146;2022-11-20T23:53:24;1.45;;;1.45;;
53313;SDS011;39202;51.468;7.146;2022-11-20T23:58:30;1.38;;;1.38;;
